Time;durP1;ratioP1;P1;durP2;ratioP2;P2;SDS_P1;SDS_P2;PMS_P1;PMS_P2;Temp;Humidity;BMP_temperature;BMP_pressure;BME280_temperature;BME280_humidity;BME280_pressure;Samples;Min_cycle;Max_cycle;Signal;HPM_P1;HPM_P2
2022/07/17 00:01:28;;;;;;;;;;;;;;;28.33;35.78;100821.72;5030258;28;1294;-39
2022/07/17 00:03:53;;;;;;;;;;;;;;;28.34;35.90;100815.28;5030019;28;2005;-39
2022/07/17 00:06:18;;;;;;;;;;;;;;;28.32;35.91;100803.81;5028347;28;969;-38
2022/07/17 00:08:44;;;;;;;;;;;;;;;28.33;36.00;100807.34;5032768;28;985;-39
2022/07/17 00:11:09;;;;;;;;;;;;;;;28.33;35.83;100812.75;5029864;28;1242;-39
2022/07/17 00:13:34;;;;;;;;;;;;;;;28.24;35.87;100818.25;5036049;28;900;-36
2022/07/17 00:16:00;;;;;;;;;;;;;;;28.27;36.13;100818.91;5032479;28;1225;-37
2022/07/17 00:18:25;;;;;;;;;;;;;;;28.22;35.97;100817.63;5035546;28;1016;-39
2022/07/17 00:20:50;;;;;;;;;;;;;;;28.27;36.04;100814.34;5035365;28;1131;-39
2022/07/17 00:23:15;;;;;;;;;;;;;;;28.29;36.39;100814.16;5029844;28;1989;-38
2022/07/17 00:25:41;;;;;;;;;;;;;;;28.28;36.15;100807.91;5029364;28;844;-37
2022/07/17 00:28:06;;;;;;;;;;;;;;;28.27;36.04;100814.34;5025817;28;1020;-38
2022/07/17 00:30:31;;;;;;;;;;;;;;;28.27;35.91;100808.09;5036127;28;1079;-38
2022/07/17 00:32:57;;;;;;;;;;;;;;;28.23;35.83;100802.22;5036471;28;989;-38
2022/07/17 00:35:22;;;;;;;;;;;;;;;28.23;36.10;100803.06;5025768;28;993;-39
2022/07/17 00:37:48;;;;;;;;;;;;;;;28.21;35.87;100793.47;5029462;28;1036;-37
2022/07/17 00:40:14;;;;;;;;;;;;;;;28.15;36.05;100803.16;5029097;28;1012;-39
2022/07/17 00:42:40;;;;;;;;;;;;;;;28.22;36.02;100808.66;5030656;28;1894;-38
2022/07/17 00:45:06;;;;;;;;;;;;;;;28.19;35.90;100815.31;5032485;28;1060;-39
2022/07/17 00:47:31;;;;;;;;;;;;;;;28.16;35.84;100804.84;5031866;28;1080;-38
2022/07/17 00:49:57;;;;;;;;;;;;;;;28.20;35.77;100806.16;5035563;28;883;-39
2022/07/17 00:52:22;;;;;;;;;;;;;;;28.24;35.52;100809.31;5034495;28;1242;-39
2022/07/17 00:54:47;;;;;;;;;;;;;;;28.28;35.30;100807.09;5035852;28;992;-37
2022/07/17 00:57:14;;;;;;;;;;;;;;;28.21;35.61;100815.13;5036045;28;1175;-37
2022/07/17 00:59:39;;;;;;;;;;;;;;;28.26;35.38;100812.66;5030270;28;1033;-38
2022/07/17 01:02:05;;;;;;;;;;;;;;;28.24;35.12;100815.53;5029473;28;1918;-38
2022/07/17 01:04:31;;;;;;;;;;;;;;;28.19;35.47;100811.75;5026767;28;1083;-39
2022/07/17 01:06:57;;;;;;;;;;;;;;;28.18;34.79;100808.19;5031605;28;1020;-38
2022/07/17 01:09:22;;;;;;;;;;;;;;;28.18;35.69;100808.19;5029408;28;1139;-38
2022/07/17 01:11:47;;;;;;;;;;;;;;;28.28;34.82;100807.09;5034607;28;1033;-36
2022/07/17 01:14:13;;;;;;;;;;;;;;;28.17;35.45;100809.25;5033551;28;1194;-37
2022/07/17 01:16:38;;;;;;;;;;;;;;;28.14;34.45;100804.22;5034281;28;1076;-36
2022/07/17 01:19:03;;;;;;;;;;;;;;;28.18;35.17;100796.53;5034510;28;1445;-37
2022/07/17 01:21:41;;;;;;;;;;;;;;;28.21;35.42;100801.59;5034331;28;1017;-36
2022/07/17 01:24:06;;;;;;;;;;;;;;;28.05;35.07;100798.06;5034957;28;1013;-37
2022/07/17 01:26:32;;;;;;;;;;;;;;;28.15;35.04;100796.91;5024302;28;1119;-38
2022/07/17 01:28:57;;;;;;;;;;;;;;;28.19;35.07;100795.53;5030791;28;1005;-39
2022/07/17 01:31:22;;;;;;;;;;;;;;;28.17;34.38;100794.88;5031983;28;1051;-37
2022/07/17 01:33:48;;;;;;;;;;;;;;;28.21;34.42;100794.28;5030030;28;1274;-37
2022/07/17 01:36:13;;;;;;;;;;;;;;;28.11;34.00;100800.00;5028842;28;984;-36
2022/07/17 01:38:38;;;;;;;;;;;;;;;28.28;34.70;100791.66;5031852;28;921;-36
2022/07/17 01:41:04;;;;;;;;;;;;;;;28.26;34.77;100796.41;5029396;28;1032;-39
2022/07/17 01:43:29;;;;;;;;;;;;;;;28.15;34.56;100796.91;5031430;28;1969;-39
2022/07/17 01:45:54;;;;;;;;;;;;;;;28.20;34.19;100789.06;5032688;28;1123;-37
2022/07/17 01:48:23;;;;;;;;;;;;;;;28.21;34.82;100797.00;5033114;28;997;-38
2022/07/17 01:50:49;;;;;;;;;;;;;;;28.17;34.24;100798.41;5032787;28;1191;-36
2022/07/17 01:53:14;;;;;;;;;;;;;;;28.19;34.77;100801.78;5034344;28;1040;-37
2022/07/17 01:55:39;;;;;;;;;;;;;;;28.16;34.91;100793.19;5034788;28;1182;-39
2022/07/17 01:58:05;;;;;;;;;;;;;;;28.15;34.84;100794.22;5028614;28;1029;-36
2022/07/17 02:00:30;;;;;;;;;;;;;;;28.17;34.79;100795.72;5028262;28;1012;-39
2022/07/17 02:02:55;;;;;;;;;;;;;;;28.18;34.92;100797.38;5026155;28;1977;-37
2022/07/17 02:05:21;;;;;;;;;;;;;;;28.24;34.47;100799.31;5034449;28;969;-33
2022/07/17 02:07:46;;;;;;;;;;;;;;;28.21;34.31;100797.00;5035975;28;1162;-36
2022/07/17 02:10:13;;;;;;;;;;;;;;;28.19;34.19;100799.06;5036446;28;1053;-39
2022/07/17 02:12:39;;;;;;;;;;;;;;;28.11;34.29;100800.00;5034738;28;1191;-37
2022/07/17 02:15:04;;;;;;;;;;;;;;;28.14;34.82;100797.94;5033403;28;1006;-37
2022/07/17 02:17:30;;;;;;;;;;;;;;;28.14;34.69;100795.25;5037571;28;1254;-38
2022/07/17 02:19:55;;;;;;;;;;;;;;;28.07;35.26;100795.16;5038607;28;1025;-37
2022/07/17 02:22:20;;;;;;;;;;;;;;;28.05;35.13;100797.22;5032339;28;1955;-37
2022/07/17 02:24:45;;;;;;;;;;;;;;;27.08;34.95;100647.47;5033871;28;1199;-37
2022/07/17 02:27:11;;;;;;;;;;;;;;;28.04;34.95;100800.94;5033927;28;914;-37
2022/07/17 02:29:36;;;;;;;;;;;;;;;27.97;34.96;100801.72;5031988;28;1012;-37
2022/07/17 02:32:01;;;;;;;;;;;;;;;28.08;34.45;100808.50;5033348;28;969;-39
2022/07/17 02:34:27;;;;;;;;;;;;;;;28.09;34.87;100803.94;5032034;28;1013;-38
2022/07/17 02:36:52;;;;;;;;;;;;;;;28.05;34.80;100808.03;5030931;28;1041;-37
2022/07/17 02:39:17;;;;;;;;;;;;;;;28.01;34.90;100806.75;5033776;28;909;-38
2022/07/17 02:41:42;;;;;;;;;;;;;;;27.96;34.62;100810.00;5034078;28;1897;-36
2022/07/17 02:44:08;;;;;;;;;;;;;;;28.09;34.17;100818.28;5036505;28;1068;-37
2022/07/17 02:46:33;;;;;;;;;;;;;;;28.14;34.13;100819.59;5036309;28;1068;-36
2022/07/17 02:48:59;;;;;;;;;;;;;;;28.13;34.28;100815.22;5035643;28;1175;-39
2022/07/17 02:51:24;;;;;;;;;;;;;;;28.01;34.74;100817.56;5034372;28;960;-36
2022/07/17 02:53:49;;;;;;;;;;;;;;;27.96;34.75;100821.66;5035957;28;1135;-38
2022/07/17 02:56:14;;;;;;;;;;;;;;;28.07;34.94;100828.47;5028380;28;1056;-39
2022/07/17 02:58:40;;;;;;;;;;;;;;;28.04;34.95;100836.09;5032716;28;988;-38
2022/07/17 03:01:05;;;;;;;;;;;;;;;28.07;34.82;100823.06;5029517;28;1246;-35
2022/07/17 03:03:30;;;;;;;;;;;;;;;27.99;34.85;100834.78;5032906;28;1961;-38
2022/07/17 03:05:57;;;;;;;;;;;;;;;28.03;34.89;100842.56;5035534;28;1270;-39
2022/07/17 03:08:22;;;;;;;;;;;;;;;28.06;34.77;100837.59;5036216;28;1057;-39
2022/07/17 03:10:48;;;;;;;;;;;;;;;28.06;34.28;100831.34;5034573;28;1139;-39
2022/07/17 03:13:13;;;;;;;;;;;;;;;27.65;36.06;100830.75;5036730;28;1075;-33
2022/07/17 03:15:38;;;;;;;;;;;;;;;27.12;38.54;100835.13;5037385;28;1112;-32
2022/07/17 03:18:03;;;;;;;;;;;;;;;26.85;39.11;100826.50;5031907;28;1004;-37
2022/07/17 03:20:29;;;;;;;;;;;;;;;26.76;39.88;100824.84;5037381;28;985;-32
2022/07/17 03:22:54;;;;;;;;;;;;;;;26.84;39.25;100821.28;5027926;28;1987;-33
2022/07/17 03:25:19;;;;;;;;;;;;;;;26.96;39.33;100825.22;5031558;28;1024;-32
2022/07/17 03:27:45;;;;;;;;;;;;;;;26.95;39.98;100826.25;5030869;28;941;-32
2022/07/17 03:30:10;;;;;;;;;;;;;;;26.91;41.14;100830.31;5032720;28;1051;-32
2022/07/17 03:32:35;;;;;;;;;;;;;;;26.79;42.16;100829.94;5032142;28;977;-32
2022/07/17 03:35:01;;;;;;;;;;;;;;;26.68;42.45;100825.75;5031398;28;1037;-31
2022/07/17 03:37:27;;;;;;;;;;;;;;;26.64;42.04;100830.66;5030600;28;961;-33
2022/07/17 03:39:52;;;;;;;;;;;;;;;26.65;41.80;100836.91;5034189;28;997;-33
2022/07/17 03:42:18;;;;;;;;;;;;;;;26.18;42.10;100828.69;5032303;28;1914;-31
2022/07/17 03:44:43;;;;;;;;;;;;;;;24.18;47.45;100832.13;5035822;28;1005;-32
2022/07/17 03:47:09;;;;;;;;;;;;;;;24.67;44.74;100825.19;5033944;28;1612;-33
2022/07/17 03:49:34;;;;;;;;;;;;;;;24.43;45.21;100824.16;5037352;28;1004;-30
2022/07/17 03:51:59;;;;;;;;;;;;;;;24.41;46.69;100836.03;5036326;28;1104;-32
2022/07/17 03:54:24;;;;;;;;;;;;;;;25.83;40.43;100836.19;5027110;28;964;-34
2022/07/17 03:56:50;;;;;;;;;;;;;;;26.30;38.35;100837.22;5037260;28;1043;-34
2022/07/17 03:59:15;;;;;;;;;;;;;;;26.49;37.07;100845.94;5031125;28;1244;-32
2022/07/17 04:01:40;;;;;;;;;;;;;;;26.08;38.46;100839.66;5032977;28;1997;-34
2022/07/17 04:04:06;;;;;;;;;;;;;;;25.85;38.03;100840.41;5031336;28;2618;-30
2022/07/17 04:06:31;;;;;;;;;;;;;;;25.88;38.18;100855.38;5036924;28;1958;-32
2022/07/17 04:08:56;;;;;;;;;;;;;;;25.97;37.52;100850.81;5037311;28;1864;-30
2022/07/17 04:11:22;;;;;;;;;;;;;;;25.92;37.13;100854.88;5028748;28;1999;-35
2022/07/17 04:13:47;;;;;;;;;;;;;;;26.03;37.25;100847.44;5032876;28;2134;-32
2022/07/17 04:16:13;;;;;;;;;;;;;;;24.24;43.47;100845.91;5028873;28;2059;-33
2022/07/17 04:18:38;;;;;;;;;;;;;;;20.90;49.03;100841.97;5035509;28;2271;-30
2022/07/17 04:21:07;;;;;;;;;;;;;;;21.14;53.10;100846.94;5033092;28;1016;-29
2022/07/17 04:23:33;;;;;;;;;;;;;;;21.28;53.08;100844.84;5035598;28;1911;-30
2022/07/17 04:25:58;;;;;;;;;;;;;;;21.38;53.00;100842.16;5033493;28;997;-29
2022/07/17 04:28:24;;;;;;;;;;;;;;;20.82;54.78;100856.03;5032819;28;1263;-30
2022/07/17 04:30:49;;;;;;;;;;;;;;;20.37;55.46;100857.31;5036464;28;1086;-31
2022/07/17 04:33:14;;;;;;;;;;;;;;;19.18;59.34;100852.06;5029865;28;1402;-31
2022/07/17 04:35:40;;;;;;;;;;;;;;;19.07;60.72;100852.91;5031150;28;1001;-29
2022/07/17 04:38:05;;;;;;;;;;;;;;;19.24;60.75;100856.03;5031684;28;1044;-33
2022/07/17 04:40:31;;;;;;;;;;;;;;;19.08;62.03;100859.09;5033362;28;1176;-30
2022/07/17 04:42:56;;;;;;;;;;;;;;;20.96;59.52;100864.66;5036427;28;1894;-32
2022/07/17 04:45:21;;;;;;;;;;;;;;;23.57;47.48;100875.03;5035659;28;1199;-30
2022/07/17 04:47:47;;;;;;;;;;;;;;;19.37;58.84;100877.19;5036410;28;1004;-32
2022/07/17 04:50:12;;;;;;;;;;;;;;;20.61;53.18;100883.69;5029342;28;2727;-30
2022/07/17 04:52:37;;;;;;;;;;;;;;;20.85;51.44;100881.66;5024940;28;1002;-31
2022/07/17 04:55:03;;;;;;;;;;;;;;;20.86;51.33;100889.53;5031189;28;1005;-33
2022/07/17 04:57:28;;;;;;;;;;;;;;;22.26;49.60;100889.34;5032515;28;1159;-34
2022/07/17 04:59:54;;;;;;;;;;;;;;;23.83;45.81;100880.41;5032936;28;1428;-30
2022/07/17 05:02:19;;;;;;;;;;;;;;;22.57;49.14;100879.34;5033773;28;1910;-33
2022/07/17 05:04:44;;;;;;;;;;;;;;;22.36;49.78;100893.81;5036391;28;1060;-30
2022/07/17 05:07:10;;;;;;;;;;;;;;;22.38;49.62;100890.03;5034573;28;1064;-34
2022/07/17 05:09:35;;;;;;;;;;;;;;;21.80;49.85;100899.91;5035882;28;1118;-34
2022/07/17 05:12:00;;;;;;;;;;;;;;;21.57;50.90;100894.81;5030233;28;992;-32
2022/07/17 05:14:26;;;;;;;;;;;;;;;21.25;51.63;100895.97;5028412;28;997;-31
2022/07/17 05:16:51;;;;;;;;;;;;;;;21.64;50.53;100898.63;5035617;28;1072;-32
2022/07/17 05:19:16;;;;;;;;;;;;;;;21.11;51.92;100902.56;5035338;28;2461;-35
2022/07/17 05:21:41;;;;;;;;;;;;;;;22.67;49.33;100904.28;5035551;28;1906;-35
2022/07/17 05:24:07;;;;;;;;;;;;;;;23.66;45.86;100894.72;5034844;28;1226;-31
2022/07/17 05:26:32;;;;;;;;;;;;;;;22.26;47.85;100894.72;5033279;28;1067;-33
2022/07/17 05:28:57;;;;;;;;;;;;;;;21.99;48.93;100896.34;5026793;28;1032;-31
2022/07/17 05:31:23;;;;;;;;;;;;;;;21.52;49.58;100899.78;5035583;28;1111;-32
2022/07/17 05:33:48;;;;;;;;;;;;;;;20.97;51.25;100893.13;5029965;28;1147;-32
2022/07/17 05:36:13;;;;;;;;;;;;;;;20.70;52.01;100897.22;5035521;28;1272;-32
2022/07/17 05:38:38;;;;;;;;;;;;;;;20.65;52.90;100898.47;5035720;28;981;-34
2022/07/17 05:41:04;;;;;;;;;;;;;;;20.71;52.65;100909.59;5039555;28;1228;-34
2022/07/17 05:43:29;;;;;;;;;;;;;;;21.37;54.88;100908.19;5038221;28;1968;-32
2022/07/17 05:45:57;;;;;;;;;;;;;;;23.48;46.76;100911.69;5034831;28;985;-30
2022/07/17 05:48:23;;;;;;;;;;;;;;;22.59;47.94;100898.78;5037088;28;2414;-30
2022/07/17 05:50:48;;;;;;;;;;;;;;;21.94;49.34;100895.94;5030110;28;1108;-32
2022/07/17 05:53:14;;;;;;;;;;;;;;;22.21;49.43;100905.03;5035514;28;1060;-32
2022/07/17 05:55:40;;;;;;;;;;;;;;;21.52;50.55;100905.13;5035772;28;1119;-31
2022/07/17 05:58:05;;;;;;;;;;;;;;;21.92;50.38;100908.63;5038225;28;1446;-34
2022/07/17 06:00:30;;;;;;;;;;;;;;;21.57;49.90;100904.69;5037266;28;1116;-35
2022/07/17 06:02:56;;;;;;;;;;;;;;;21.82;50.04;100910.47;5035791;28;1907;-34
2022/07/17 06:05:21;;;;;;;;;;;;;;;21.07;51.46;100907.31;5037843;28;1060;-33
2022/07/17 06:07:46;;;;;;;;;;;;;;;21.05;51.54;100912.00;5038703;28;1024;-33
2022/07/17 06:10:12;;;;;;;;;;;;;;;20.95;52.69;100913.78;5039228;28;1067;-31
2022/07/17 06:12:37;;;;;;;;;;;;;;;21.53;50.86;100913.03;5035432;28;961;-31
2022/07/17 06:15:02;;;;;;;;;;;;;;;21.46;50.82;100911.03;5028243;28;973;-32
2022/07/17 06:17:28;;;;;;;;;;;;;;;21.39;50.62;100918.75;5037192;28;1017;-32
2022/07/17 06:19:53;;;;;;;;;;;;;;;21.75;49.83;100902.16;5034958;28;2534;-31
2022/07/17 06:22:19;;;;;;;;;;;;;;;22.42;47.54;100897.75;5035351;28;1902;-35
2022/07/17 06:24:44;;;;;;;;;;;;;;;22.03;48.03;100918.34;5033481;28;1095;-31
2022/07/17 06:27:10;;;;;;;;;;;;;;;21.89;48.82;100916.94;5035856;28;1056;-34
2022/07/17 06:29:35;;;;;;;;;;;;;;;21.55;49.20;100912.88;5038869;28;1118;-31
2022/07/17 06:32:00;;;;;;;;;;;;;;;21.52;50.13;100916.66;5039278;28;1226;-31
2022/07/17 06:34:25;;;;;;;;;;;;;;;21.29;50.30;100913.41;5036980;28;1005;-31
2022/07/17 06:36:51;;;;;;;;;;;;;;;21.46;49.93;100922.59;5036477;28;1202;-32
2022/07/17 06:39:16;;;;;;;;;;;;;;;21.35;49.93;100914.69;5038128;28;1174;-33
2022/07/17 06:41:42;;;;;;;;;;;;;;;21.11;50.19;100914.09;5038144;28;1032;-31
2022/07/17 06:44:07;;;;;;;;;;;;;;;21.00;50.72;100915.06;5038061;28;1898;-33
2022/07/17 06:46:32;;;;;;;;;;;;;;;21.07;51.24;100907.31;5031952;28;1040;-31
2022/07/17 06:48:58;;;;;;;;;;;;;;;20.94;51.34;100912.94;5034479;28;2652;-32
2022/07/17 06:51:23;;;;;;;;;;;;;;;20.85;52.36;100919.09;5032997;28;1091;-32
2022/07/17 06:53:49;;;;;;;;;;;;;;;21.52;52.58;100921.19;5033814;28;1029;-30
2022/07/17 06:56:14;;;;;;;;;;;;;;;23.65;45.17;100918.06;5034687;28;1024;-31
2022/07/17 06:58:40;;;;;;;;;;;;;;;22.45;46.54;100919.75;5035082;28;1110;-35
2022/07/17 07:01:05;;;;;;;;;;;;;;;21.80;47.34;100920.50;5038507;28;1043;-35
2022/07/17 07:03:30;;;;;;;;;;;;;;;22.43;48.14;100913.69;5035763;28;1906;-34
2022/07/17 07:05:55;;;;;;;;;;;;;;;24.01;44.90;100925.19;5037659;28;1184;-34
2022/07/17 07:08:21;;;;;;;;;;;;;;;22.79;45.61;100921.03;5037414;28;1040;-33
2022/07/17 07:10:46;;;;;;;;;;;;;;;22.50;49.36;100924.69;5038356;28;1198;-33
2022/07/17 07:13:12;;;;;;;;;;;;;;;23.99;43.53;100926.38;5032695;28;1005;-38
2022/07/17 07:15:37;;;;;;;;;;;;;;;23.34;44.49;100930.00;5030603;28;1083;-37
2022/07/17 07:18:03;;;;;;;;;;;;;;;22.62;45.40;100920.84;5034905;28;2546;-31
2022/07/17 07:20:28;;;;;;;;;;;;;;;23.58;44.46;100925.91;5033788;28;1088;-34
2022/07/17 07:22:54;;;;;;;;;;;;;;;23.94;43.81;100924.16;5033522;28;1941;-35
2022/07/17 07:25:19;;;;;;;;;;;;;;;22.99;44.93;100921.75;5038164;28;1102;-35
2022/07/17 07:27:44;;;;;;;;;;;;;;;23.70;44.18;100921.13;5037532;28;1152;-33
2022/07/17 07:30:10;;;;;;;;;;;;;;;23.83;44.68;100926.09;5036444;28;1079;-35
2022/07/17 07:32:38;;;;;;;;;;;;;;;22.80;45.75;100920.06;5036309;28;1075;-35
2022/07/17 07:35:04;;;;;;;;;;;;;;;23.64;44.90;100934.34;5036893;28;1257;-31
2022/07/17 07:37:29;;;;;;;;;;;;;;;23.88;44.79;100941.75;5031423;28;950;-32
2022/07/17 07:39:55;;;;;;;;;;;;;;;22.94;45.40;100932.09;5031159;28;1004;-33
2022/07/17 07:42:20;;;;;;;;;;;;;;;23.40;45.41;100939.31;5037459;28;1894;-33
2022/07/17 07:44:46;;;;;;;;;;;;;;;24.37;43.78;100951.16;5033200;28;1004;-34
2022/07/17 07:47:11;;;;;;;;;;;;;;;23.27;44.76;100945.03;5034521;28;1155;-33
2022/07/17 07:49:36;;;;;;;;;;;;;;;22.73;48.14;100943.09;5030639;28;2655;-35
2022/07/17 07:52:02;;;;;;;;;;;;;;;24.03;43.20;100944.69;5034296;28;1242;-37
2022/07/17 07:54:27;;;;;;;;;;;;;;;23.78;43.82;100946.34;5035683;28;1108;-35
2022/07/17 07:56:54;;;;;;;;;;;;;;;22.81;45.12;100940.50;5036202;28;1000;-35
2022/07/17 07:59:19;;;;;;;;;;;;;;;23.69;43.89;100948.97;5036578;28;1297;-32
2022/07/17 08:01:45;;;;;;;;;;;;;;;24.30;42.78;100948.28;5037039;28;1198;-33
2022/07/17 08:04:10;;;;;;;;;;;;;;;23.25;44.14;100944.34;5026667;28;1985;-38
2022/07/17 08:06:35;;;;;;;;;;;;;;;22.82;49.25;100955.59;5030184;28;1004;-34
2022/07/17 08:09:01;;;;;;;;;;;;;;;24.30;41.88;100955.47;5035762;28;1005;-36
2022/07/17 08:11:27;;;;;;;;;;;;;;;23.59;43.55;100957.09;5031540;28;1091;-37
2022/07/17 08:13:52;;;;;;;;;;;;;;;23.11;48.60;100953.75;5034037;28;993;-35
2022/07/17 08:16:18;;;;;;;;;;;;;;;24.38;41.49;100952.00;5034091;28;1747;-34
2022/07/17 08:18:43;;;;;;;;;;;;;;;23.64;43.71;100967.38;5036633;28;2569;-33
2022/07/17 08:21:08;;;;;;;;;;;;;;;22.91;44.82;100961.06;5035201;28;1249;-32
2022/07/17 08:23:33;;;;;;;;;;;;;;;23.96;42.91;100968.66;5036770;28;1969;-36
2022/07/17 08:25:59;;;;;;;;;;;;;;;24.17;42.25;100975.53;5029637;28;942;-33
2022/07/17 08:28:24;;;;;;;;;;;;;;;23.10;44.00;100970.84;5031568;28;1086;-38
2022/07/17 08:30:49;;;;;;;;;;;;;;;23.26;44.67;100970.19;5036582;28;1051;-33
2022/07/17 08:33:16;;;;;;;;;;;;;;;24.64;41.29;100975.34;5034386;28;1341;-32
2022/07/17 08:35:41;;;;;;;;;;;;;;;23.27;43.69;100965.66;5027852;28;1143;-36
2022/07/17 08:38:07;;;;;;;;;;;;;;;22.81;46.17;100967.34;5032899;28;1068;-34
2022/07/17 08:40:33;;;;;;;;;;;;;;;23.90;42.55;100974.66;5029490;28;1095;-32
2022/07/17 08:42:58;;;;;;;;;;;;;;;23.85;42.53;100979.66;5034072;28;1897;-36
2022/07/17 08:45:24;;;;;;;;;;;;;;;23.04;44.00;100983.03;5033181;28;1127;-35
2022/07/17 08:47:49;;;;;;;;;;;;;;;23.38;44.11;100983.38;5035903;28;1142;-31
2022/07/17 08:50:15;;;;;;;;;;;;;;;24.72;42.27;100982.59;5036617;28;2594;-36
2022/07/17 08:52:40;;;;;;;;;;;;;;;23.47;42.92;100980.66;5035544;28;1017;-36
2022/07/17 08:55:10;;;;;;;;;;;;;;;23.07;43.64;100981.88;5031207;28;1071;-34
2022/07/17 08:57:39;;;;;;;;;;;;;;;24.55;37.01;100991.44;5032723;28;949;-34
2022/07/17 09:00:05;;;;;;;;;;;;;;;23.95;38.20;100988.50;5036340;28;1009;-34
2022/07/17 09:02:30;;;;;;;;;;;;;;;23.53;38.71;100989.97;5032345;28;1914;-33
2022/07/17 09:04:56;;;;;;;;;;;;;;;23.73;38.04;100985.28;5035866;28;930;-32
2022/07/17 09:07:21;;;;;;;;;;;;;;;23.58;38.45;100994.88;5036356;28;1064;-31
2022/07/17 09:09:50;;;;;;;;;;;;;;;24.08;36.81;100988.06;5033687;28;1072;-33
2022/07/17 09:12:15;;;;;;;;;;;;;;;24.42;35.80;100993.69;5035944;28;1017;-36
2022/07/17 09:14:41;;;;;;;;;;;;;;;24.04;36.44;100986.69;5032074;28;1225;-33
2022/07/17 09:17:07;;;;;;;;;;;;;;;24.09;36.67;100992.44;5029661;28;1052;-32
2022/07/17 09:19:36;;;;;;;;;;;;;;;24.46;36.17;101000.44;5028405;28;2552;-31
2022/07/17 09:22:04;;;;;;;;;;;;;;;23.86;37.50;101000.16;5029948;28;1956;-32
2022/07/17 09:24:40;;;;;;;;;;;;;;;24.31;36.21;100989.41;5030833;28;1135;-36
2022/07/17 09:27:05;;;;;;;;;;;;;;;23.73;37.57;100997.84;5032335;28;1064;-36
2022/07/17 09:29:30;;;;;;;;;;;;;;;24.49;35.36;100999.28;5026932;28;1064;-32
2022/07/17 09:31:55;;;;;;;;;;;;;;;23.91;36.80;101000.53;5030673;28;1012;-31
2022/07/17 09:34:21;;;;;;;;;;;;;;;23.46;38.06;100988.88;5034353;28;1099;-33
2022/07/17 09:36:57;;;;;;;;;;;;;;;23.27;38.49;100995.19;5035997;28;1044;-33
2022/07/17 09:39:22;;;;;;;;;;;;;;;23.52;38.35;100990.97;5031348;28;1000;-32
2022/07/17 09:41:48;;;;;;;;;;;;;;;22.83;39.87;100989.50;5031839;28;1435;-34
2022/07/17 09:44:13;;;;;;;;;;;;;;;22.95;39.92;100976.72;5031166;28;1967;-31
2022/07/17 09:46:39;;;;;;;;;;;;;;;23.41;38.08;100989.31;5035927;28;1008;-31
2022/07/17 09:49:05;;;;;;;;;;;;;;;23.38;38.22;100999.50;5028519;28;2763;-32
2022/07/17 09:51:31;;;;;;;;;;;;;;;22.99;38.95;100996.88;5036194;28;1095;-34
2022/07/17 09:53:57;;;;;;;;;;;;;;;22.95;39.41;100989.28;5034174;28;1148;-33
2022/07/17 09:56:23;;;;;;;;;;;;;;;22.99;39.44;100987.97;5029492;28;966;-32
2022/07/17 09:58:49;;;;;;;;;;;;;;;22.66;39.98;100995.63;5029607;28;981;-32
2022/07/17 10:01:15;;;;;;;;;;;;;;;22.69;40.68;100996.16;5030978;28;1255;-31
2022/07/17 10:03:41;;;;;;;;;;;;;;;23.94;37.95;100992.16;5030635;28;1914;-32
2022/07/17 10:06:06;;;;;;;;;;;;;;;24.95;34.70;100996.34;5028602;28;937;-35
2022/07/17 10:08:32;;;;;;;;;;;;;;;24.62;34.09;100996.16;5031504;28;1097;-31
2022/07/17 10:10:57;;;;;;;;;;;;;;;24.70;34.54;101002.44;5033075;28;1175;-34
2022/07/17 10:13:22;;;;;;;;;;;;;;;24.62;34.37;100997.00;5034392;28;1037;-36
2022/07/17 10:15:48;;;;;;;;;;;;;;;24.27;34.98;100996.13;5033751;28;1294;-35
2022/07/17 10:18:13;;;;;;;;;;;;;;;24.11;35.25;100992.28;5029375;28;1971;-35
2022/07/17 10:20:38;;;;;;;;;;;;;;;23.95;35.89;100996.53;5030725;28;1215;-33
2022/07/17 10:23:16;;;;;;;;;;;;;;;24.43;35.23;100990.84;5029505;28;1902;-34
2022/07/17 10:25:42;;;;;;;;;;;;;;;24.88;33.51;100988.03;5038069;28;1048;-33
2022/07/17 10:28:07;;;;;;;;;;;;;;;24.10;35.24;100982.53;5034658;28;1028;-34
2022/07/17 10:30:33;;;;;;;;;;;;;;;23.79;36.60;100988.34;5037838;28;1144;-32
2022/07/17 10:32:59;;;;;;;;;;;;;;;24.69;34.87;100983.78;5034355;28;1341;-35
2022/07/17 10:35:25;;;;;;;;;;;;;;;25.14;33.25;100989.00;5033966;28;1079;-34
2022/07/17 10:37:51;;;;;;;;;;;;;;;25.05;33.04;100991.69;5036105;28;1024;-32
2022/07/17 10:40:20;;;;;;;;;;;;;;;24.80;33.18;100993.38;5033958;28;1132;-31
2022/07/17 10:42:52;;;;;;;;;;;;;;;25.00;33.20;100980.56;5030827;28;1906;-33
2022/07/17 10:45:19;;;;;;;;;;;;;;;24.59;33.88;100983.84;5034726;28;1122;-35
2022/07/17 10:47:54;;;;;;;;;;;;;;;23.92;35.68;100974.50;5032942;28;1076;-33
2022/07/17 10:50:27;;;;;;;;;;;;;;;24.29;35.40;100986.88;5029180;28;937;-31
2022/07/17 10:53:09;;;;;;;;;;;;;;;24.94;33.54;100991.97;5032024;28;1223;-34
2022/07/17 10:55:35;;;;;;;;;;;;;;;24.18;35.52;100985.31;5033426;28;1144;-33
2022/07/17 10:58:00;;;;;;;;;;;;;;;24.01;36.14;100981.63;5035570;28;1025;-34
2022/07/17 11:00:26;;;;;;;;;;;;;;;24.91;33.94;100982.38;5037717;28;1036;-35
2022/07/17 11:02:51;;;;;;;;;;;;;;;24.72;34.33;100977.22;5037492;28;1979;-34
2022/07/17 11:05:17;;;;;;;;;;;;;;;23.57;36.57;100977.06;5028538;28;1016;-37
2022/07/17 11:07:56;;;;;;;;;;;;;;;23.33;37.43;100984.69;5033333;28;1051;-36
2022/07/17 11:10:22;;;;;;;;;;;;;;;24.14;36.03;100980.38;5037147;28;1055;-34
2022/07/17 11:12:47;;;;;;;;;;;;;;;24.98;33.92;100974.50;5030450;28;1132;-37
2022/07/17 11:15:13;;;;;;;;;;;;;;;24.86;34.04;100975.78;5036269;28;1072;-33
2022/07/17 11:17:43;;;;;;;;;;;;;;;24.63;34.65;100976.31;5035436;28;1040;-35
2022/07/17 11:20:08;;;;;;;;;;;;;;;24.58;34.36;100983.03;5036488;28;2605;-36
2022/07/17 11:22:33;;;;;;;;;;;;;;;25.48;32.38;100979.13;5035911;28;1886;-34
2022/07/17 11:24:59;;;;;;;;;;;;;;;25.02;32.53;100983.94;5036319;28;1225;-33
2022/07/17 11:27:25;;;;;;;;;;;;;;;24.64;33.77;100980.72;5036583;28;1263;-35
2022/07/17 11:29:51;;;;;;;;;;;;;;;25.48;32.01;100974.59;5034757;28;1174;-36
2022/07/17 11:32:17;;;;;;;;;;;;;;;24.41;33.55;100983.94;5034139;28;1402;-33
2022/07/17 11:34:42;;;;;;;;;;;;;;;24.01;34.29;100978.94;5034563;28;1459;-33
2022/07/17 11:37:08;;;;;;;;;;;;;;;23.14;36.75;100974.09;5035075;28;1179;-34
2022/07/17 11:39:42;;;;;;;;;;;;;;;23.66;36.00;100961.84;5037771;28;1020;-33
2022/07/17 11:42:08;;;;;;;;;;;;;;;24.75;33.51;100966.13;5032544;28;1964;-35
2022/07/17 11:44:33;;;;;;;;;;;;;;;24.93;32.65;100971.44;5037271;28;1048;-34
2022/07/17 11:46:58;;;;;;;;;;;;;;;25.45;31.83;100974.94;5029391;28;961;-36
2022/07/17 11:49:34;;;;;;;;;;;;;;;24.36;33.94;100972.84;5027819;28;2714;-33
2022/07/17 11:52:06;;;;;;;;;;;;;;;23.66;35.92;100973.44;5037597;28;1103;-33
2022/07/17 11:54:31;;;;;;;;;;;;;;;23.05;37.71;100963.25;5037266;28;901;-37
2022/07/17 11:57:01;;;;;;;;;;;;;;;22.63;38.83;100964.59;5035963;28;1045;-32
2022/07/17 11:59:30;;;;;;;;;;;;;;;22.45;39.40;100969.84;5035220;28;1012;-34
2022/07/17 12:01:56;;;;;;;;;;;;;;;22.33;40.28;100971.84;5033486;28;1179;-35
2022/07/17 12:04:21;;;;;;;;;;;;;;;22.47;41.13;100966.00;5034296;28;1910;-35
2022/07/17 12:06:47;;;;;;;;;;;;;;;24.19;35.98;100978.94;5035854;28;902;-32
2022/07/17 12:09:12;;;;;;;;;;;;;;;23.89;37.28;100980.19;5032428;28;1403;-34
2022/07/17 12:11:47;;;;;;;;;;;;;;;22.94;39.74;100988.44;5027909;28;973;-38
2022/07/17 12:14:12;;;;;;;;;;;;;;;22.92;41.05;100987.72;5029266;28;1044;-34
2022/07/17 12:16:37;;;;;;;;;;;;;;;24.55;36.02;100977.13;5032387;28;1175;-33
2022/07/17 12:19:11;;;;;;;;;;;;;;;23.28;39.65;100975.41;5030440;28;1929;-36
2022/07/17 12:21:50;;;;;;;;;;;;;;;23.03;43.15;100975.13;5033869;28;996;-33
2022/07/17 12:24:21;;;;;;;;;;;;;;;24.70;37.43;100970.16;5032631;28;1977;-34
2022/07/17 12:26:47;;;;;;;;;;;;;;;23.91;41.61;100964.75;5037132;28;1146;-34
2022/07/17 12:29:12;;;;;;;;;;;;;;;23.50;43.09;100968.78;5036020;28;1036;-35
2022/07/17 12:31:38;;;;;;;;;;;;;;;23.94;44.68;100984.09;5034452;28;1139;-37
2022/07/17 12:34:03;;;;;;;;;;;;;;;24.12;45.00;100979.69;5035638;28;1158;-36
2022/07/17 12:36:28;;;;;;;;;;;;;;;24.29;44.88;100984.19;5034974;28;1069;-40
2022/07/17 12:38:54;;;;;;;;;;;;;;;24.28;45.29;100977.16;5036774;28;1182;-37
2022/07/17 12:41:19;;;;;;;;;;;;;;;25.27;42.33;100984.00;5032778;28;1100;-32